createdAt,value
2022-10-01T00:01:38.327Z,99899.69
2022-10-01T00:06:47.902Z,99896.50
2022-10-01T00:11:55.071Z,99887.19
2022-10-01T00:17:03.249Z,99875.19
2022-10-01T00:22:18.431Z,99876.16
2022-10-01T00:27:25.252Z,99872.19
2022-10-01T00:32:56.374Z,99866.97
2022-10-01T00:38:08.845Z,99869.84
2022-10-01T00:43:41.368Z,99861.16
2022-10-01T00:49:13.165Z,99866.53
2022-10-01T00:54:29.790Z,99859.81
2022-10-01T00:59:58.430Z,99862.53
2022-10-01T01:05:16.687Z,99863.22
2022-10-01T01:10:46.346Z,99854.56
2022-10-01T01:16:02.906Z,99852.25
2022-10-01T01:21:38.633Z,99845.38
2022-10-01T01:27:11.646Z,99847.16
2022-10-01T01:32:33.701Z,99832.44
2022-10-01T01:37:47.547Z,99834.63
2022-10-01T01:43:13.696Z,99818.81
2022-10-01T01:48:21.058Z,99818.69
2022-10-01T01:53:35.998Z,99808.22
2022-10-01T01:58:48.425Z,99817.03
2022-10-01T02:04:04.683Z,99813.59
2022-10-01T02:09:21.875Z,99813.75
2022-10-01T02:14:47.127Z,99816.88
2022-10-01T02:20:06.627Z,99810.97
2022-10-01T02:25:33.927Z,99807.25
2022-10-01T02:30:58.316Z,99795.84
2022-10-01T02:36:14.784Z,99802.72
2022-10-01T02:41:43.391Z,99782.22
2022-10-01T02:47:22.251Z,99786.91
2022-10-01T02:52:42.028Z,99778.63
2022-10-01T03:03:33.102Z,99772.56
2022-10-01T03:09:00.897Z,99760.88
2022-10-01T03:14:11.153Z,99759.22
2022-10-01T03:19:20.738Z,99751.94
2022-10-01T03:24:32.082Z,99749.31
2022-10-01T03:29:47.308Z,99743.13
2022-10-01T03:34:54.411Z,99738.88
2022-10-01T03:40:06.543Z,99735.56
2022-10-01T03:45:13.581Z,99733.63
2022-10-01T03:50:23.561Z,99726.47
2022-10-01T03:55:34.219Z,99720.97
2022-10-01T04:00:42.409Z,99717.91
2022-10-01T04:05:51.542Z,99717.22
2022-10-01T04:11:01.018Z,99710.72
2022-10-01T04:16:07.292Z,99712.06
2022-10-01T04:21:19.474Z,99706.28
2022-10-01T04:26:30.716Z,99698.81
2022-10-01T04:37:01.060Z,99688.44
2022-10-01T04:42:15.324Z,99691.59
2022-10-01T04:47:26.016Z,99684.28
2022-10-01T04:52:34.088Z,99687.59
2022-10-01T04:57:56.307Z,99689.91
2022-10-01T05:03:07.784Z,99686.19
2022-10-01T05:08:16.562Z,99690.44
2022-10-01T05:13:32.747Z,99688.38
2022-10-01T05:18:48.166Z,99677.59
2022-10-01T05:23:52.961Z,99669.59
2022-10-01T05:28:59.652Z,99663.91
2022-10-01T05:34:13.076Z,99655.63
2022-10-01T05:39:31.594Z,99649.78
2022-10-01T05:44:47.661Z,99644.81
2022-10-01T05:49:52.691Z,99644.38
2022-10-01T05:54:57.499Z,99641.81
2022-10-01T06:00:08.178Z,99635.16
2022-10-01T06:05:16.029Z,99627.16
2022-10-01T06:10:28.615Z,99619.13
2022-10-01T06:15:52.106Z,99609.72
2022-10-01T06:21:00.275Z,99601.09
2022-10-01T06:26:18.456Z,99599.94
2022-10-01T06:31:29.903Z,99589.69
2022-10-01T06:36:36.735Z,99593.03
2022-10-01T06:41:45.006Z,99577.66
2022-10-01T06:46:55.980Z,99572.50
2022-10-01T06:52:20.047Z,99573.50
2022-10-01T06:57:28.839Z,99564.53
2022-10-01T07:02:50.618Z,99553.41
2022-10-01T07:08:04.392Z,99557.06
2022-10-01T07:13:21.559Z,99559.88
2022-10-01T07:18:36.550Z,99542.84
2022-10-01T07:24:05.487Z,99540.91
2022-10-01T07:29:16.220Z,99527.97
2022-10-01T07:34:35.859Z,99532.59
2022-10-01T07:39:57.612Z,99521.31
2022-10-01T07:45:11.207Z,99516.72
2022-10-01T07:50:47.714Z,99511.31
2022-10-01T07:56:08.309Z,99508.34
2022-10-01T08:01:49.602Z,99496.06
2022-10-01T08:12:22.151Z,99492.06
2022-10-01T08:17:32.197Z,99482.41
2022-10-01T08:23:49.687Z,99472.06
2022-10-01T08:29:24.294Z,99453.56
2022-10-01T08:34:34.263Z,99444.75
2022-10-01T08:39:45.581Z,99426.03
2022-10-01T08:44:54.729Z,99415.41
2022-10-01T08:50:24.077Z,99400.31
2022-10-01T08:55:38.116Z,99397.34
2022-10-01T09:00:50.420Z,99389.00
2022-10-01T09:06:10.974Z,99386.69
2022-10-01T09:11:33.761Z,99390.78
2022-10-01T09:16:55.206Z,99398.16
2022-10-01T09:22:22.742Z,99388.47
2022-10-01T09:27:36.920Z,99394.38
2022-10-01T09:32:58.220Z,99391.94
2022-10-01T09:38:06.662Z,99392.09
2022-10-01T09:43:20.454Z,99398.31
2022-10-01T09:48:38.545Z,99398.47
2022-10-01T09:53:52.779Z,99403.56
2022-10-01T09:59:11.544Z,99397.00
2022-10-01T10:04:35.256Z,99400.47
2022-10-01T10:09:41.846Z,99408.34
2022-10-01T10:15:02.182Z,99407.34
2022-10-01T10:20:44.753Z,99408.00
2022-10-01T10:26:02.911Z,99404.56
2022-10-01T10:31:16.924Z,99394.56
2022-10-01T10:36:42.023Z,99393.56
2022-10-01T10:42:00.408Z,99392.91
2022-10-01T10:47:18.444Z,99386.69
2022-10-01T10:52:37.883Z,99387.00
2022-10-01T10:57:46.699Z,99370.28
2022-10-01T11:02:57.214Z,99366.19
2022-10-01T11:08:12.976Z,99362.06
2022-10-01T11:13:35.505Z,99365.00
2022-10-01T11:19:07.444Z,99356.97
2022-10-01T11:24:35.754Z,99343.69
2022-10-01T11:29:58.314Z,99347.78
2022-10-01T11:35:29.659Z,99346.28
2022-10-01T11:41:04.971Z,99349.38
2022-10-01T11:46:25.629Z,99346.91
2022-10-01T11:51:39.980Z,99346.72
2022-10-01T11:57:13.822Z,99342.28
2022-10-01T12:02:26.553Z,99340.81
2022-10-01T12:07:39.244Z,99332.28
2022-10-01T12:12:54.616Z,99329.66
2022-10-01T12:18:20.192Z,99328.19
2022-10-01T12:23:39.946Z,99337.34
2022-10-01T12:29:13.530Z,99337.63
2022-10-01T12:34:39.053Z,99344.38
2022-10-01T12:40:07.964Z,99329.41
2022-10-01T12:45:28.914Z,99329.25
2022-10-01T12:50:42.429Z,99322.28
2022-10-01T12:56:10.936Z,99332.75
2022-10-01T13:01:31.878Z,99338.97
2022-10-01T13:06:49.003Z,99345.00
2022-10-01T13:12:22.642Z,99346.66
2022-10-01T13:17:51.280Z,99352.53
2022-10-01T13:23:23.568Z,99359.28
2022-10-01T13:28:49.251Z,99355.34
2022-10-01T13:34:06.203Z,99355.28
2022-10-01T13:44:47.701Z,99363.59
2022-10-01T13:50:28.367Z,99357.13
2022-10-01T13:55:41.220Z,99360.84
2022-10-01T14:01:03.426Z,99371.84
2022-10-01T14:06:33.563Z,99364.34
2022-10-01T14:11:57.045Z,99360.19
2022-10-01T14:17:12.886Z,99361.22
2022-10-01T14:22:30.229Z,99374.34
2022-10-01T14:27:51.945Z,99365.56
2022-10-01T14:33:31.825Z,99372.69
2022-10-01T14:38:54.502Z,99372.09
2022-10-01T14:44:48.460Z,99373.63
2022-10-01T14:49:57.259Z,99383.97
2022-10-01T14:55:20.063Z,99383.91
2022-10-01T15:00:31.302Z,99387.63
2022-10-01T15:05:47.266Z,99386.38
2022-10-01T15:11:24.607Z,99387.00
2022-10-01T15:16:34.563Z,99383.25
2022-10-01T15:21:53.437Z,99395.66
2022-10-01T15:27:20.619Z,99387.16
2022-10-01T15:33:01.649Z,99397.91
2022-10-01T15:38:09.875Z,99387.72
2022-10-01T15:49:28.369Z,99408.56
2022-10-01T15:54:36.182Z,99420.97
2022-10-01T16:00:00.975Z,99420.50
2022-10-01T16:05:11.539Z,99426.75
2022-10-01T16:10:41.296Z,99424.59
2022-10-01T16:16:28.920Z,99435.59
2022-10-01T16:21:46.339Z,99417.84
2022-10-01T16:27:00.124Z,99433.00
2022-10-01T16:32:20.348Z,99433.47
2022-10-01T16:37:27.379Z,99429.38
2022-10-01T16:48:04.628Z,99456.22
2022-10-01T16:53:18.478Z,99450.31
2022-10-01T16:58:28.646Z,99469.03
2022-10-01T17:03:38.126Z,99486.28
2022-10-01T17:08:52.286Z,99482.66
2022-10-01T17:14:04.956Z,99488.91
2022-10-01T17:19:17.388Z,99492.19
2022-10-01T17:24:25.514Z,99513.94
2022-10-01T17:29:36.415Z,99511.59
2022-10-01T17:34:47.223Z,99514.88
2022-10-01T17:40:39.067Z,99523.75
2022-10-01T17:45:56.822Z,99527.38
2022-10-01T17:51:11.876Z,99539.09
2022-10-01T17:56:20.483Z,99547.16
2022-10-01T18:01:46.758Z,99545.38
2022-10-01T18:07:00.964Z,99561.53
2022-10-01T18:12:06.408Z,99568.47
2022-10-01T18:17:14.957Z,99576.06
2022-10-01T18:22:23.520Z,99572.94
2022-10-01T18:27:32.082Z,99588.09
2022-10-01T18:32:46.238Z,99591.69
2022-10-01T18:38:01.504Z,99595.63
2022-10-01T18:43:25.581Z,99602.84
2022-10-01T18:49:00.298Z,99614.03
2022-10-01T18:54:35.131Z,99611.25
2022-10-01T19:00:09.086Z,99637.25
2022-10-01T19:05:40.824Z,99640.03
2022-10-01T19:11:05.647Z,99648.72
2022-10-01T19:16:29.647Z,99659.59
2022-10-01T19:21:45.430Z,99670.75
2022-10-01T19:27:22.220Z,99670.59
2022-10-01T19:32:38.298Z,99679.66
2022-10-01T19:37:52.758Z,99695.78
2022-10-01T19:43:17.448Z,99689.53
2022-10-01T19:48:38.918Z,99698.38
2022-10-01T19:53:51.396Z,99703.47
2022-10-01T19:58:57.010Z,99717.94
2022-10-01T20:04:24.822Z,99738.59
2022-10-01T20:09:48.913Z,99736.78
2022-10-01T20:15:21.841Z,99756.34
2022-10-01T20:20:39.058Z,99770.28
2022-10-01T20:25:48.393Z,99778.78
2022-10-01T20:31:09.768Z,99781.06
2022-10-01T20:36:24.072Z,99796.81
2022-10-01T20:41:43.029Z,99806.97
2022-10-01T20:46:56.679Z,99803.16
2022-10-01T20:52:07.860Z,99819.41
2022-10-01T20:57:38.211Z,99827.09
2022-10-01T21:03:05.577Z,99825.75
2022-10-01T21:08:19.020Z,99837.84
2022-10-01T21:13:35.174Z,99849.31
2022-10-01T21:18:53.132Z,99860.16
2022-10-01T21:24:13.718Z,99869.31
2022-10-01T21:29:58.796Z,99869.63
2022-10-01T21:35:29.858Z,99882.38
2022-10-01T21:41:14.444Z,99892.38
2022-10-01T21:46:25.016Z,99903.31
2022-10-01T21:51:44.362Z,99905.09
2022-10-01T21:57:04.364Z,99918.75
2022-10-01T22:02:29.946Z,99926.97
2022-10-01T22:07:53.117Z,99931.34
2022-10-01T22:13:17.106Z,99932.81
2022-10-01T22:18:43.460Z,99954.97
2022-10-01T22:24:11.880Z,99957.19
2022-10-01T22:29:32.072Z,99964.41
2022-10-01T22:34:49.842Z,99967.50
2022-10-01T22:40:06.376Z,99966.00
2022-10-01T22:45:18.352Z,99977.59
2022-10-01T22:50:55.282Z,99984.06
2022-10-01T22:56:07.293Z,99986.84
2022-10-01T23:01:43.548Z,99994.34
2022-10-01T23:06:58.970Z,100001.97
2022-10-01T23:12:16.527Z,100017.72
2022-10-01T23:17:34.019Z,100027.84
2022-10-01T23:22:57.979Z,100036.13
2022-10-01T23:28:27.336Z,100039.03
2022-10-01T23:33:50.101Z,100040.31
2022-10-01T23:39:34.577Z,100052.91
2022-10-01T23:44:51.817Z,100057.63
2022-10-01T23:50:16.091Z,100065.94
2022-10-01T23:56:00.843Z,100079.06
